Time;durP1;ratioP1;P1;durP2;ratioP2;P2;SDS_P1;SDS_P2;PMS_P1;PMS_P2;Temp;Humidity;BMP_temperature;BMP_pressure;BME280_temperature;BME280_humidity;BME280_pressure;Samples;Min_cycle;Max_cycle;Signal;HPM_P1;HPM_P2
2020/12/16 00:02:22;;;;;;;86.18;49.25;;;;;;;-0.77;85.46;96482.50;5038174;28;20045;-85
2020/12/16 00:04:47;;;;;;;85.97;48.40;;;;;;;-0.98;85.42;96432.56;5056783;28;20028;-85
2020/12/16 00:07:13;;;;;;;82.80;47.88;;;;;;;-0.71;85.33;96460.41;5056796;28;20029;-85
2020/12/16 00:09:39;;;;;;;77.65;45.75;;;;;;;-1.19;85.07;96406.66;5056890;28;20037;-85
2020/12/16 00:12:04;;;;;;;77.20;45.72;;;;;;;-0.99;85.44;96439.81;5056539;28;20104;-85
2020/12/16 00:14:30;;;;;;;78.40;45.63;;;;;;;-0.78;84.24;96462.31;5056514;28;20033;-85
2020/12/16 00:16:55;;;;;;;76.13;43.13;;;;;;;-0.87;84.51;96458.09;5057471;28;20371;-85
2020/12/16 00:19:20;;;;;;;79.32;45.53;;;;;;;-0.97;84.64;96442.09;5058043;28;20300;-85
2020/12/16 00:21:46;;;;;;;75.22;44.10;;;;;;;-0.68;83.79;96482.91;5057990;28;20025;-85
2020/12/16 00:24:11;;;;;;;31.35;20.33;;;;;;;-0.98;85.30;96427.25;5056303;28;20029;-85
2020/12/16 00:26:37;;;;;;;70.03;38.92;;;;;;;-0.52;84.27;96493.22;5056218;28;20056;-85
2020/12/16 00:29:02;;;;;;;74.75;41.38;;;;;;;-0.87;84.07;96447.44;5056167;28;20078;-85
2020/12/16 00:31:28;;;;;;;68.75;41.30;;;;;;;-1.18;83.68;96406.25;5056216;28;20324;-85
2020/12/16 00:33:53;;;;;;;73.70;42.17;;;;;;;-0.91;84.50;96441.34;5038661;28;20029;-85
2020/12/16 00:36:18;;;;;;;69.95;41.63;;;;;;;-0.82;84.16;96443.63;5035503;28;20029;-85
2020/12/16 00:38:45;;;;;;;76.80;43.90;;;;;;;-0.89;83.31;96455.06;5036099;28;20080;-85
2020/12/16 00:41:11;;;;;;;79.65;44.25;;;;;;;-1.02;83.43;96437.91;5036072;28;20108;-85
2020/12/16 00:43:36;;;;;;;72.47;43.55;;;;;;;-0.81;83.38;96491.25;5036086;28;20056;-85
2020/12/16 00:46:03;;;;;;;75.88;42.75;;;;;;;-1.23;83.69;96429.88;5037313;28;20105;-85
2020/12/16 00:48:28;;;;;;;69.53;39.28;;;;;;;-0.68;83.46;96515.69;5037020;28;20064;-85
2020/12/16 00:50:55;;;;;;;65.88;39.38;;;;;;;-1.24;83.62;96428.34;5035947;28;20033;-85
2020/12/16 00:53:20;;;;;;;64.63;37.10;;;;;;;-0.91;84.38;96485.91;5036995;28;20028;-85
2020/12/16 00:55:45;;;;;;;66.95;39.38;;;;;;;-0.62;84.55;96510.72;5035881;28;20025;-85
2020/12/16 00:58:11;;;;;;;61.67;36.83;;;;;;;-1.03;83.65;96462.28;5035858;28;20413;-85
2020/12/16 01:00:37;;;;;;;62.40;36.70;;;;;;;-0.97;84.66;96469.53;5036858;28;20029;-85
2020/12/16 01:03:02;;;;;;;62.60;37.00;;;;;;;-0.89;84.04;96492.41;5035530;28;20042;-85
2020/12/16 01:05:28;;;;;;;57.70;35.03;;;;;;;-1.16;83.67;96456.56;5035737;28;20029;-85
2020/12/16 01:07:53;;;;;;;60.85;36.97;;;;;;;-1.06;82.65;96472.56;5036770;28;20033;-85
2020/12/16 01:10:19;;;;;;;57.13;35.33;;;;;;;-0.84;83.55;96517.94;5035725;28;20298;-85
2020/12/16 01:12:46;;;;;;;58.15;35.33;;;;;;;-1.02;83.44;96483.22;5036993;28;20033;-85
2020/12/16 01:15:24;;;;;;;56.38;34.55;;;;;;;-1.17;83.26;96477.13;5036734;28;20049;-85
2020/12/16 01:17:49;;;;;;;52.42;33.15;;;;;;;-0.93;82.71;96520.97;5048678;28;20425;-85
2020/12/16 01:20:16;;;;;;;53.53;34.45;;;;;;;-1.15;83.36;96480.16;5055912;28;20028;-85
2020/12/16 01:22:48;;;;;;;56.70;35.35;;;;;;;-0.90;85.09;96504.22;5056613;28;20056;-85
2020/12/16 01:25:18;;;;;;;58.03;36.22;;;;;;;-1.36;83.65;96450.78;5055429;28;20115;-85
2020/12/16 01:27:43;;;;;;;55.10;34.85;;;;;;;-1.32;84.46;96464.91;5057302;28;20135;-85
2020/12/16 01:30:10;;;;;;;58.00;36.88;;;;;;;-0.97;84.24;96522.09;5055455;28;20107;-85
2020/12/16 01:32:38;;;;;;;59.05;35.95;;;;;;;-1.36;83.96;96442.81;5056455;28;20028;-85
2020/12/16 01:35:08;;;;;;;57.80;36.45;;;;;;;-1.24;83.36;96477.09;5055443;28;20379;-85
2020/12/16 01:37:37;;;;;;;59.50;37.20;;;;;;;-0.90;83.93;96519.47;5055403;28;20021;-85
2020/12/16 01:40:08;;;;;;;61.65;36.78;;;;;;;-1.38;83.51;96474.41;5055340;28;20021;-85
2020/12/16 01:42:35;;;;;;;58.72;36.40;;;;;;;-1.17;84.29;96501.13;5055474;28;20056;-85
2020/12/16 01:45:08;;;;;;;59.97;38.00;;;;;;;-1.34;84.80;96478.59;5056361;28;20029;-85
2020/12/16 01:47:34;;;;;;;60.88;38.53;;;;;;;-1.33;84.21;96471.38;5057640;28;20032;-85
2020/12/16 01:50:00;;;;;;;60.10;37.83;;;;;;;-1.29;83.47;96469.47;5060281;28;20028;-85
2020/12/16 01:52:27;;;;;;;66.63;41.03;;;;;;;-1.07;84.21;96504.94;5059172;28;20029;-86
2020/12/16 01:54:57;;;;;;;57.60;37.22;;;;;;;-1.48;83.91;96449.25;5059141;28;20021;-85
2020/12/16 01:57:24;;;;;;;63.97;39.13;;;;;;;-1.15;83.48;96495.41;5060126;28;20032;-85
2020/12/16 01:59:51;;;;;;;60.17;38.58;;;;;;;-1.09;84.51;96497.31;5059137;28;20061;-85
2020/12/16 02:02:18;;;;;;;56.75;37.53;;;;;;;-1.17;84.63;96479.00;5058741;28;20132;-85
2020/12/16 02:04:46;;;;;;;63.50;39.03;;;;;;;-1.25;85.09;96472.16;5060146;28;20047;-85
2020/12/16 02:07:12;;;;;;;61.30;38.58;;;;;;;-1.00;85.24;96499.63;5058832;28;20020;-85
2020/12/16 02:09:45;;;;;;;57.17;37.10;;;;;;;-1.03;84.06;96503.03;5059953;28;20078;-85
2020/12/16 02:12:16;;;;;;;58.72;36.13;;;;;;;-1.04;84.27;96514.09;5060178;28;20025;-85
2020/12/16 02:14:43;;;;;;;61.47;37.63;;;;;;;-1.22;83.55;96492.72;5060133;28;20103;-85
2020/12/16 02:17:09;;;;;;;55.28;34.60;;;;;;;-1.58;84.21;96448.06;5058711;28;20021;-85
2020/12/16 02:19:42;;;;;;;54.63;33.00;;;;;;;-1.26;83.52;96481.28;5058726;28;20405;-85
2020/12/16 02:22:11;;;;;;;51.08;30.63;;;;;;;-1.12;83.20;96514.09;5055641;28;20041;-85
2020/12/16 02:25:13;;;;;;;42.25;25.90;;;;;;;-1.33;84.39;96463.38;5059614;28;20017;-85
2020/12/16 02:27:40;;;;;;;40.63;26.67;;;;;;;-1.02;84.48;96525.13;5055951;28;20037;-85
2020/12/16 02:30:09;;;;;;;40.88;26.70;;;;;;;-1.22;84.38;96493.50;5058500;28;20020;-85
2020/12/16 02:32:35;;;;;;;41.60;26.27;;;;;;;-1.20;84.21;96501.84;5059538;28;20112;-85
2020/12/16 02:35:01;;;;;;;40.08;24.92;;;;;;;-1.13;84.46;96507.19;5058387;28;20052;-85
2020/12/16 02:37:27;;;;;;;36.58;23.63;;;;;;;-1.27;85.08;96477.84;5059409;28;20077;-86
2020/12/16 02:39:52;;;;;;;39.97;24.08;;;;;;;-0.96;85.24;96505.75;5059393;28;20032;-85
2020/12/16 02:42:23;;;;;;;44.95;26.63;;;;;;;-0.81;85.13;96509.19;5058193;28;20036;-85
2020/12/16 02:44:48;;;;;;;46.47;27.77;;;;;;;-0.82;84.38;96513.00;5058216;28;20029;-85
2020/12/16 02:47:14;;;;;;;42.20;26.67;;;;;;;-0.95;84.09;96466.50;5058116;28;20379;-85
2020/12/16 02:49:40;;;;;;;44.47;27.02;;;;;;;-0.86;83.75;96491.63;5058092;28;20032;-85
2020/12/16 02:52:05;;;;;;;47.33;28.65;;;;;;;-0.97;84.61;96466.84;5059167;28;20025;-85
2020/12/16 02:54:30;;;;;;;44.28;28.10;;;;;;;-0.95;84.48;96471.84;5059137;28;20127;-85
2020/12/16 02:56:56;;;;;;;43.38;27.13;;;;;;;-0.67;85.29;96497.78;5059407;28;20302;-85
2020/12/16 02:59:27;;;;;;;41.25;26.85;;;;;;;-0.63;84.24;96509.97;5057217;28;20439;-85
2020/12/16 03:01:55;;;;;;;39.30;26.15;;;;;;;-0.50;83.35;96515.69;5057734;28;20033;-85
2020/12/16 03:04:22;;;;;;;38.05;24.67;;;;;;;-0.66;83.90;96492.03;5057893;28;20032;-85
2020/12/16 03:06:52;;;;;;;36.20;24.02;;;;;;;-0.60;84.32;96503.84;5058727;28;20036;-85
2020/12/16 03:09:25;;;;;;;36.03;24.35;;;;;;;-0.46;84.22;96513.78;5058797;28;20033;-85
2020/12/16 03:11:55;;;;;;;36.92;23.65;;;;;;;-0.48;84.74;96508.09;5058735;28;20036;-85
2020/12/16 03:14:22;;;;;;;14.20;10.20;;;;;;;-0.36;86.01;96518.38;5058008;28;20048;-85
2020/12/16 03:16:48;;;;;;;9.77;6.75;;;;;;;-0.23;85.77;96509.97;5058688;28;20040;-85
2020/12/16 03:19:15;;;;;;;7.47;5.55;;;;;;;-0.03;85.00;96522.53;5057393;28;20021;-85
2020/12/16 03:21:41;;;;;;;7.95;6.15;;;;;;;-0.13;84.81;96495.84;5058642;28;20413;-85
2020/12/16 03:24:06;;;;;;;8.52;6.07;;;;;;;-0.29;84.89;96462.28;5057488;28;20024;-85
2020/12/16 03:26:32;;;;;;;7.82;5.72;;;;;;;-0.15;84.51;96471.44;5057442;28;20027;-85
2020/12/16 03:28:57;;;;;;;8.73;6.45;;;;;;;-0.12;84.90;96478.66;5057369;28;20421;-84
2020/12/16 03:31:22;;;;;;;15.52;11.02;;;;;;;0.04;83.47;96483.59;5058447;28;20033;-85
2020/12/16 03:33:48;;;;;;;22.52;14.48;;;;;;;0.14;83.10;96502.28;5057330;28;20028;-84
2020/12/16 03:36:15;;;;;;;12.50;9.48;;;;;;;-0.17;84.30;96455.78;5057309;28;20051;-84
2020/12/16 03:38:41;;;;;;;16.45;11.27;;;;;;;-0.01;83.66;96471.41;5058327;28;20017;-84
2020/12/16 03:41:07;;;;;;;8.93;6.55;;;;;;;0.33;84.03;96529.72;5057184;28;20423;-84
2020/12/16 03:43:32;;;;;;;22.83;15.63;;;;;;;0.07;83.75;96478.25;5057169;28;20036;-84
2020/12/16 03:45:58;;;;;;;22.58;16.13;;;;;;;0.26;83.48;96514.44;5058212;28;20025;-84
2020/12/16 03:48:25;;;;;;;9.73;7.35;;;;;;;0.23;83.53;96516.00;5053632;28;20032;-84
2020/12/16 03:50:51;;;;;;;23.27;14.90;;;;;;;0.37;83.45;96520.53;5038084;28;20026;-84
2020/12/16 03:53:16;;;;;;;8.35;5.70;;;;;;;-0.01;82.56;96480.16;5038017;28;20151;-84
2020/12/16 03:55:42;;;;;;;8.35;6.15;;;;;;;0.26;83.16;96520.56;5036899;28;20021;-84
2020/12/16 03:58:07;;;;;;;8.63;6.55;;;;;;;0.00;83.15;96486.28;5037197;28;20032;-84
2020/12/16 04:00:33;;;;;;;8.05;6.32;;;;;;;0.06;83.41;96492.00;5037943;28;20160;-85
2020/12/16 04:02:58;;;;;;;8.35;6.40;;;;;;;0.13;83.45;96514.09;5037943;28;20049;-85
2020/12/16 04:05:24;;;;;;;8.18;6.15;;;;;;;-0.16;83.11;96480.56;5037866;28;20045;-84
2020/12/16 04:07:49;;;;;;;6.43;5.50;;;;;;;0.19;83.04;96533.94;5038238;28;20108;-85
2020/12/16 04:10:15;;;;;;;7.22;5.80;;;;;;;-0.06;83.08;96501.91;5035653;28;20022;-85
2020/12/16 04:12:40;;;;;;;7.50;5.68;;;;;;;0.01;83.27;96497.75;5036695;28;20021;-85
2020/12/16 04:15:06;;;;;;;7.05;5.05;;;;;;;0.00;82.72;96491.63;5036336;28;20087;-84
2020/12/16 04:17:32;;;;;;;11.50;8.55;;;;;;;-0.05;82.22;96497.38;5037597;28;20398;-84
2020/12/16 04:19:59;;;;;;;6.78;5.07;;;;;;;0.21;82.18;96523.66;5036615;28;20413;-84
2020/12/16 04:22:25;;;;;;;7.30;5.40;;;;;;;-0.03;82.16;96482.47;5036657;28;20346;-85
2020/12/16 04:24:50;;;;;;;6.90;5.18;;;;;;;0.14;82.24;96506.84;5036417;28;20124;-85
2020/12/16 04:27:17;;;;;;;8.02;6.22;;;;;;;0.30;82.45;96525.13;5036239;28;20108;-84
2020/12/16 04:29:42;;;;;;;8.43;6.45;;;;;;;0.07;82.87;96521.00;5036356;28;20348;-85
2020/12/16 04:32:10;;;;;;;9.05;7.00;;;;;;;0.25;83.37;96545.75;5037367;28;20040;-85
2020/12/16 04:34:35;;;;;;;9.07;6.53;;;;;;;0.15;83.51;96524.41;5036393;28;20060;-84
2020/12/16 04:37:01;;;;;;;8.48;6.68;;;;;;;-0.36;83.43;96456.22;5044984;28;20070;-85
2020/12/16 04:39:26;;;;;;;8.85;6.60;;;;;;;-0.28;83.50;96468.38;5056086;28;20053;-85
2020/12/16 04:41:52;;;;;;;8.75;6.32;;;;;;;0.22;83.50;96549.22;5056957;28;20079;-84
2020/12/16 04:44:17;;;;;;;9.25;6.97;;;;;;;-0.14;83.65;96492.41;5056104;28;20025;-84
2020/12/16 04:46:43;;;;;;;9.23;6.65;;;;;;;-0.35;83.79;96476.41;5057042;28;20436;-85
2020/12/16 04:49:10;;;;;;;9.40;6.65;;;;;;;0.20;84.28;96558.75;5056966;28;20427;-84
2020/12/16 04:51:40;;;;;;;9.77;6.68;;;;;;;-0.15;84.17;96519.50;5056920;28;20025;-85
2020/12/16 04:54:06;;;;;;;8.87;6.83;;;;;;;0.14;84.36;96558.38;5057308;28;20025;-85
2020/12/16 04:56:34;;;;;;;9.82;7.20;;;;;;;-0.09;84.13;96517.97;5056936;28;20025;-85
2020/12/16 04:59:00;;;;;;;8.65;6.55;;;;;;;0.24;84.00;96554.94;5055773;28;20123;-85
2020/12/16 05:01:26;;;;;;;8.60;6.68;;;;;;;-0.20;83.79;96488.59;5056848;28;20021;-84
2020/12/16 05:03:51;;;;;;;9.15;7.35;;;;;;;0.17;83.33;96541.59;5055635;28;20074;-85
2020/12/16 05:06:36;;;;;;;9.63;7.22;;;;;;;0.10;83.86;96533.56;5055715;28;20352;-84
2020/12/16 05:09:06;;;;;;;10.82;6.95;;;;;;;0.28;83.74;96562.94;5055771;28;20025;-85
2020/12/16 05:11:40;;;;;;;8.97;6.73;;;;;;;0.17;83.70;96562.97;5055619;28;20075;-84
2020/12/16 05:14:31;;;;;;;23.08;12.68;;;;;;;0.25;83.72;96567.13;5056779;28;20316;-84
2020/12/16 05:17:01;;;;;;;26.90;15.65;;;;;;;0.33;83.26;96567.91;5054661;28;20072;-84
2020/12/16 05:19:29;;;;;;;26.63;14.73;;;;;;;0.28;83.28;96568.28;5050013;28;20017;-85
2020/12/16 05:22:12;;;;;;;16.58;10.80;;;;;;;0.19;83.21;96541.19;5036340;28;20032;-85
2020/12/16 05:24:37;;;;;;;8.65;6.88;;;;;;;0.29;82.97;96564.47;5036197;28;20021;-84
2020/12/16 05:27:03;;;;;;;13.38;8.52;;;;;;;0.17;82.34;96562.97;5036635;28;20298;-84
2020/12/16 05:29:29;;;;;;;13.63;8.75;;;;;;;-0.21;82.77;96503.09;5036701;28;20029;-84
2020/12/16 05:31:55;;;;;;;10.80;8.15;;;;;;;-0.09;82.85;96523.31;5051573;28;20025;-84
2020/12/16 05:34:31;;;;;;;8.57;6.72;;;;;;;0.10;83.93;96562.19;5057393;28;20051;-83
2020/12/16 05:36:56;;;;;;;7.97;6.40;;;;;;;-0.33;83.51;96495.47;5037748;28;20056;-84
2020/12/16 05:39:22;;;;;;;10.02;6.75;;;;;;;-0.32;83.45;96505.00;5035598;28;20118;-84
2020/12/16 05:41:54;;;;;;;10.30;7.28;;;;;;;-0.11;83.35;96523.66;5035402;28;20033;-84
2020/12/16 05:44:21;;;;;;;9.32;6.88;;;;;;;0.19;83.18;96583.94;5037113;28;20032;-84
2020/12/16 05:46:51;;;;;;;17.40;11.77;;;;;;;-0.09;84.17;96528.66;5035923;28;20076;-84
2020/12/16 05:49:35;;;;;;;30.23;20.27;;;;;;;-0.08;83.49;96549.63;5036593;28;20026;-84
2020/12/16 05:52:06;;;;;;;32.92;20.23;;;;;;;0.13;83.46;96578.22;5035836;28;20433;-83
2020/12/16 05:54:34;;;;;;;28.38;19.38;;;;;;;-0.31;83.21;96526.00;5052648;28;20430;-84
2020/12/16 05:57:12;;;;;;;32.95;20.80;;;;;;;0.05;83.19;96578.59;5055539;28;20370;-84
2020/12/16 05:59:38;;;;;;;30.75;19.50;;;;;;;-0.61;82.61;96507.69;5056106;28;20021;-85
2020/12/16 06:02:05;;;;;;;33.88;21.60;;;;;;;-0.15;81.85;96584.34;5056011;28;20053;-86
2020/12/16 06:04:35;;;;;;;38.63;24.63;;;;;;;-0.27;83.21;96564.13;5056494;28;20306;-86
2020/12/16 06:07:03;;;;;;;39.05;25.85;;;;;;;-0.21;83.58;96580.53;5039752;28;20037;-86
2020/12/16 06:09:32;;;;;;;36.45;23.83;;;;;;;-0.48;83.20;96537.44;5035112;28;20069;-86
2020/12/16 06:12:08;;;;;;;35.47;24.70;;;;;;;-0.19;84.23;96586.25;5036021;28;20070;-85
2020/12/16 06:14:35;;;;;;;31.35;22.40;;;;;;;-0.35;83.91;96562.59;5035175;28;20034;-86
2020/12/16 06:17:09;;;;;;;37.13;23.58;;;;;;;-0.27;83.63;96569.47;5035069;28;20080;-86
2020/12/16 06:19:36;;;;;;;39.95;24.17;;;;;;;-0.13;84.22;96589.31;5035132;28;20079;-85
2020/12/16 06:22:10;;;;;;;42.38;25.77;;;;;;;-0.22;84.66;96573.66;5035160;28;20427;-85
2020/12/16 06:24:43;;;;;;;41.08;24.20;;;;;;;-0.16;84.11;96587.38;5036122;28;20040;-85
2020/12/16 06:27:11;;;;;;;40.75;25.73;;;;;;;-0.09;85.03;96584.72;5049761;28;20032;-87
2020/12/16 06:29:46;;;;;;;35.92;24.23;;;;;;;-0.51;83.66;96546.19;5055106;28;20318;-85
2020/12/16 06:32:31;;;;;;;39.03;26.65;;;;;;;-0.53;84.07;96551.16;5053771;28;20095;-85
2020/12/16 06:34:59;;;;;;;39.28;25.05;;;;;;;-1.02;82.87;96485.91;5057576;28;20062;-86
2020/12/16 06:37:24;;;;;;;42.35;25.08;;;;;;;-0.56;83.66;96546.56;5058405;28;20029;-85
2020/12/16 06:39:50;;;;;;;34.80;23.08;;;;;;;-0.71;83.71;96532.44;5058602;28;20162;-86
2020/12/16 06:42:32;;;;;;;32.60;22.83;;;;;;;-0.16;84.52;96616.75;5055505;28;20051;-86
2020/12/16 06:45:16;;;;;;;37.78;23.08;;;;;;;-0.60;83.39;96562.56;5055912;28;20079;-85
2020/12/16 06:47:43;;;;;;;28.55;20.15;;;;;;;-0.14;83.72;96615.25;5041993;28;20120;-87
2020/12/16 06:50:20;;;;;;;23.55;15.45;;;;;;;-0.41;84.15;96556.13;5059376;28;20131;-86
2020/12/16 06:52:46;;;;;;;22.55;13.95;;;;;;;-0.13;83.30;96591.97;5045838;28;20058;-85
2020/12/16 06:55:11;;;;;;;19.27;12.60;;;;;;;-0.22;83.48;96568.31;5058027;28;20435;-86
2020/12/16 06:57:49;;;;;;;12.80;9.85;;;;;;;0.06;82.82;96599.63;5057929;28;20055;-86
2020/12/16 07:00:20;;;;;;;13.35;10.05;;;;;;;0.15;82.40;96604.56;5058927;28;20060;-87
2020/12/16 07:02:46;;;;;;;13.27;10.02;;;;;;;0.43;81.63;96636.59;5053149;28;20049;-85
2020/12/16 07:05:39;;;;;;;16.33;11.43;;;;;;;0.44;82.42;96629.34;5038844;28;20095;-85
2020/12/16 07:08:05;;;;;;;13.77;10.25;;;;;;;0.11;81.93;96572.50;5039077;28;20029;-85
2020/12/16 07:10:33;;;;;;;17.88;12.40;;;;;;;0.52;82.35;96636.19;5056962;28;20025;-85
2020/12/16 07:13:17;;;;;;;14.55;11.20;;;;;;;0.33;82.51;96599.22;5057596;28;20082;-85
2020/12/16 07:15:44;;;;;;;15.20;10.85;;;;;;;0.40;82.19;96602.63;5058696;28;20048;-85
2020/12/16 07:18:24;;;;;;;15.73;10.35;;;;;;;0.45;83.35;96607.56;5057504;28;20051;-85
2020/12/16 07:20:50;;;;;;;17.35;12.10;;;;;;;0.31;83.21;96577.44;5070887;28;20033;-85
2020/12/16 07:23:16;;;;;;;32.08;21.58;;;;;;;0.36;82.21;96593.06;5041511;28;20029;-86
2020/12/16 07:25:47;;;;;;;37.10;24.52;;;;;;;0.49;82.73;96621.69;5057453;28;20328;-85
2020/12/16 07:28:16;;;;;;;36.72;24.25;;;;;;;0.50;83.13;96614.44;5057222;28;20025;-85
2020/12/16 07:30:51;;;;;;;37.10;23.85;;;;;;;0.63;82.76;96639.59;5057477;28;20028;-85
2020/12/16 07:33:17;;;;;;;34.72;23.63;;;;;;;0.29;83.29;96590.44;5058996;28;20352;-85
2020/12/16 07:35:47;;;;;;;35.85;23.98;;;;;;;0.43;83.49;96601.09;5058903;28;20078;-85
2020/12/16 07:38:14;;;;;;;33.60;22.83;;;;;;;0.60;83.72;96615.56;5058327;28;20043;-85
2020/12/16 07:40:39;;;;;;;36.80;23.48;;;;;;;0.75;83.38;96630.44;5057067;28;20491;-84
2020/12/16 07:43:08;;;;;;;38.85;24.42;;;;;;;0.54;83.42;96606.44;5057087;28;20052;-85
2020/12/16 07:45:34;;;;;;;40.03;24.90;;;;;;;0.44;83.63;96582.00;5056798;28;20039;-85
2020/12/16 07:48:00;;;;;;;40.10;26.33;;;;;;;0.30;83.79;96581.25;5056995;28;20124;-85
2020/12/16 07:50:26;;;;;;;36.30;25.33;;;;;;;0.17;84.28;96549.59;5057030;28;20016;-85
2020/12/16 07:52:52;;;;;;;36.78;24.83;;;;;;;0.85;83.65;96639.56;5056942;28;20031;-85
2020/12/16 07:55:24;;;;;;;35.42;23.23;;;;;;;0.67;83.63;96605.63;5056917;28;20075;-85
2020/12/16 07:57:50;;;;;;;55.72;35.03;;;;;;;0.82;83.40;96616.28;5056687;28;20029;-85
2020/12/16 08:00:22;;;;;;;54.95;37.30;;;;;;;0.83;83.18;96610.53;5056849;28;20074;-84
2020/12/16 08:02:51;;;;;;;30.27;18.70;;;;;;;1.09;81.98;96644.06;5056576;28;20045;-85
2020/12/16 08:05:17;;;;;;;32.80;21.73;;;;;;;1.14;82.09;96651.69;5056695;28;20029;-85
2020/12/16 08:07:43;;;;;;;39.25;23.30;;;;;;;1.07;81.86;96624.22;5057288;28;20444;-85
2020/12/16 08:10:14;;;;;;;46.72;26.42;;;;;;;0.90;82.24;96594.44;5057675;28;20033;-84
2020/12/16 08:12:42;;;;;;;23.58;13.75;;;;;;;1.24;81.27;96640.19;5057658;28;20484;-85
2020/12/16 08:15:10;;;;;;;31.90;19.08;;;;;;;1.05;80.44;96606.63;5057518;28;20321;-85
2020/12/16 08:17:43;;;;;;;19.85;13.23;;;;;;;1.23;80.50;96627.22;5056482;28;20321;-84
2020/12/16 08:20:12;;;;;;;21.92;13.55;;;;;;;1.51;80.15;96669.13;5056443;28;20017;-84
2020/12/16 08:22:39;;;;;;;33.47;18.33;;;;;;;1.37;80.20;96653.88;5057390;28;20405;-85
2020/12/16 08:25:11;;;;;;;34.65;20.55;;;;;;;1.52;80.17;96674.09;5057371;28;20052;-84
2020/12/16 08:27:56;;;;;;;36.10;20.88;;;;;;;1.30;80.85;96643.22;5036312;28;20049;-84
2020/12/16 08:30:25;;;;;;;52.67;30.92;;;;;;;1.54;80.32;96671.78;5037387;28;20017;-85
2020/12/16 08:33:06;;;;;;;62.17;34.58;;;;;;;1.71;80.01;96688.16;5037357;28;20036;-85
2020/12/16 08:35:48;;;;;;;48.55;28.05;;;;;;;1.38;80.68;96635.91;5037812;28;20025;-84
2020/12/16 08:38:23;;;;;;;24.88;15.32;;;;;;;1.69;78.56;96685.88;5046157;28;20104;-85
2020/12/16 08:40:48;;;;;;;26.45;15.68;;;;;;;1.58;79.69;96664.50;5057181;28;20417;-84
2020/12/16 08:43:27;;;;;;;23.58;14.40;;;;;;;1.54;79.83;96652.28;5055612;28;20027;-85
2020/12/16 08:46:10;;;;;;;23.52;15.15;;;;;;;1.71;79.69;96680.13;5057043;28;20052;-85
2020/12/16 08:48:40;;;;;;;17.92;11.68;;;;;;;1.90;80.41;96705.66;5054973;28;20056;-85
2020/12/16 08:51:08;;;;;;;23.75;12.80;;;;;;;1.94;79.53;96701.03;5056965;28;20036;-85
2020/12/16 08:53:59;;;;;;;16.20;11.82;;;;;;;1.97;79.45;96700.25;5055868;28;20063;-83
2020/12/16 08:56:33;;;;;;;19.20;12.18;;;;;;;2.00;79.43;96705.59;5042625;28;20025;-83
2020/12/16 08:59:15;;;;;;;16.83;12.30;;;;;;;1.86;79.58;96673.50;5056686;28;20468;-83
2020/12/16 09:01:43;;;;;;;13.23;9.68;;;;;;;2.03;78.41;96687.97;5055665;28;20040;-84
2020/12/16 09:04:11;;;;;;;11.80;8.60;;;;;;;2.22;78.44;96710.81;5053359;28;20041;-83
2020/12/16 09:06:37;;;;;;;14.88;9.63;;;;;;;2.23;87.79;96667.50;5045663;28;20017;-84
2020/12/16 09:09:13;;;;;;;14.27;10.77;;;;;;;1.56;77.29;96583.03;5063737;28;20042;-83
2020/12/16 09:11:46;;;;;;;13.55;9.73;;;;;;;2.04;77.98;96660.78;5068018;28;20024;-84
2020/12/16 09:14:12;;;;;;;13.10;9.85;;;;;;;2.00;79.04;96641.28;5055439;28;20060;-84
2020/12/16 09:16:37;;;;;;;11.27;8.68;;;;;;;2.13;78.18;96663.03;5055541;28;20057;-84
2020/12/16 09:19:03;;;;;;;12.98;9.38;;;;;;;2.34;75.49;96700.38;5055437;28;20025;-84
2020/12/16 09:21:34;;;;;;;13.43;9.25;;;;;;;2.40;76.22;96707.97;5056591;28;20021;-84
2020/12/16 09:24:01;;;;;;;21.10;10.27;;;;;;;2.38;75.05;96708.38;5055453;28;20020;-84
2020/12/16 09:26:43;;;;;;;5.72;4.60;;;;;;;1.97;74.41;96639.41;5055283;28;20417;-84
2020/12/16 09:29:16;;;;;;;9.10;5.90;;;;;;;2.53;76.22;96707.13;5036498;28;20029;-84
2020/12/16 09:31:41;;;;;;;5.43;4.47;;;;;;;2.36;74.86;96676.63;5052296;28;20025;-84
2020/12/16 09:34:07;;;;;;;5.45;4.07;;;;;;;2.36;74.16;96673.19;5054968;28;20113;-84
2020/12/16 09:36:32;;;;;;;4.90;3.60;;;;;;;2.49;73.61;96710.97;5056962;28;20049;-84
2020/12/16 09:39:00;;;;;;;3.78;3.30;;;;;;;2.24;73.07;96687.06;5055415;28;20352;-84
2020/12/16 09:41:27;;;;;;;3.85;3.30;;;;;;;2.24;74.29;96693.19;5055356;28;20329;-84
2020/12/16 09:43:52;;;;;;;4.75;4.22;;;;;;;2.42;73.66;96719.84;5055274;28;20028;-85
2020/12/16 09:46:20;;;;;;;4.57;3.17;;;;;;;2.06;72.66;96668.41;5055128;28;20028;-84
2020/12/16 09:48:47;;;;;;;3.67;2.80;;;;;;;2.34;73.37;96711.13;5056229;28;20417;-84
2020/12/16 09:51:20;;;;;;;4.53;3.53;;;;;;;2.43;74.32;96707.22;5055245;28;20028;-84
2020/12/16 09:53:46;;;;;;;3.50;3.08;;;;;;;2.39;73.21;96696.50;5056587;28;20075;-84
2020/12/16 09:56:26;;;;;;;5.55;4.78;;;;;;;2.34;72.19;96681.63;5055249;28;20021;-84
2020/12/16 09:58:54;;;;;;;4.93;4.20;;;;;;;2.36;72.56;96673.94;5046041;28;20025;-85
2020/12/16 10:01:19;;;;;;;5.18;4.18;;;;;;;2.59;73.74;96708.22;5035265;28;20456;-84
2020/12/16 10:03:48;;;;;;;6.22;5.60;;;;;;;2.24;73.95;96657.59;5035017;28;20049;-84
2020/12/16 10:06:15;;;;;;;6.00;4.82;;;;;;;2.39;73.67;96676.97;5036142;28;20026;-84
2020/12/16 10:08:41;;;;;;;5.68;4.00;;;;;;;2.57;72.60;96689.09;5038724;28;20030;-84
2020/12/16 10:11:14;;;;;;;5.57;4.95;;;;;;;2.41;73.47;96664.72;5049660;28;20494;-84
2020/12/16 10:13:42;;;;;;;4.63;3.90;;;;;;;2.68;73.19;96712.38;5058661;28;20033;-84
2020/12/16 10:16:08;;;;;;;4.07;3.47;;;;;;;2.71;72.41;96706.19;5059785;28;20017;-84
2020/12/16 10:18:35;;;;;;;5.68;4.75;;;;;;;2.59;72.63;96697.47;5059718;28;20053;-84
2020/12/16 10:21:00;;;;;;;4.32;3.92;;;;;;;2.63;72.17;96692.84;5059782;28;20033;-84
2020/12/16 10:23:26;;;;;;;5.13;3.63;;;;;;;2.41;72.28;96658.59;5059762;28;20070;-83
2020/12/16 10:25:51;;;;;;;7.90;6.35;;;;;;;2.66;72.77;96682.47;5053833;28;20025;-85
2020/12/16 10:28:18;;;;;;;3.97;3.38;;;;;;;2.81;71.70;96699.97;5038567;28;20029;-84
2020/12/16 10:30:44;;;;;;;4.95;3.65;;;;;;;2.58;72.33;96650.38;5038575;28;20032;-84
2020/12/16 10:33:09;;;;;;;4.32;3.60;;;;;;;2.76;72.89;96670.91;5038579;28;20425;-84
2020/12/16 10:35:35;;;;;;;4.50;3.70;;;;;;;2.93;72.17;96690.66;5038762;28;20112;-83
2020/12/16 10:38:00;;;;;;;3.30;2.97;;;;;;;2.93;70.58;96696.03;5039664;28;20072;-84
2020/12/16 10:40:31;;;;;;;3.22;2.92;;;;;;;2.91;72.36;96683.00;5038476;28;20021;-84
2020/12/16 10:42:57;;;;;;;3.38;3.00;;;;;;;3.17;71.53;96713.81;5047373;28;20321;-84
2020/12/16 10:45:22;;;;;;;3.97;2.80;;;;;;;2.47;71.06;96606.06;5059309;28;20025;-84
2020/12/16 10:47:48;;;;;;;3.85;3.05;;;;;;;2.88;71.96;96665.81;5058037;28;20056;-84
2020/12/16 10:50:13;;;;;;;5.10;3.08;;;;;;;2.76;70.43;96665.53;5047594;28;20040;-84
2020/12/16 10:52:39;;;;;;;5.43;3.40;;;;;;;3.01;70.43;96687.50;5059078;28;20051;-84
2020/12/16 10:55:04;;;;;;;3.30;2.72;;;;;;;3.13;70.08;96710.38;5059204;28;20116;-84
2020/12/16 10:57:29;;;;;;;3.35;2.72;;;;;;;2.77;69.63;96662.47;5057973;28;20037;-85
2020/12/16 10:59:55;;;;;;;5.95;3.15;;;;;;;2.94;71.68;96674.19;5058894;28;20032;-85
2020/12/16 11:02:20;;;;;;;4.22;3.15;;;;;;;3.03;72.08;96676.38;5057813;28;20080;-83
2020/12/16 11:04:47;;;;;;;9.45;5.30;;;;;;;3.23;70.54;96703.38;5044575;28;20057;-84
2020/12/16 11:07:13;;;;;;;6.55;3.28;;;;;;;2.95;72.11;96638.13;5070794;28;20061;-83
2020/12/16 11:09:38;;;;;;;3.85;2.80;;;;;;;3.02;71.26;96646.09;5038771;28;20072;-82
2020/12/16 11:12:04;;;;;;;4.95;2.83;;;;;;;3.33;71.50;96695.22;5038884;28;20021;-84
2020/12/16 11:14:29;;;;;;;3.65;2.50;;;;;;;2.86;70.41;96600.25;5071211;28;20025;-84
2020/12/16 11:16:55;;;;;;;12.68;3.75;;;;;;;2.99;70.78;96613.94;5071122;28;20079;-84
2020/12/16 11:19:21;;;;;;;3.40;2.22;;;;;;;3.07;69.28;96651.00;5070281;28;20025;-84
2020/12/16 11:21:49;;;;;;;5.05;3.17;;;;;;;2.57;69.81;96581.06;5074531;28;20021;-83
2020/12/16 11:24:16;;;;;;;6.72;2.90;;;;;;;3.40;70.12;96689.75;5058476;28;20294;-83
2020/12/16 11:26:44;;;;;;;8.30;2.60;;;;;;;3.37;70.19;96698.63;5057413;28;20052;-83
2020/12/16 11:29:11;;;;;;;5.85;2.83;;;;;;;2.86;70.37;96624.41;5056982;28;20024;-82
2020/12/16 11:31:42;;;;;;;3.25;2.30;;;;;;;2.84;68.95;96605.28;5057764;28;20071;-84
2020/12/16 11:34:08;;;;;;;11.90;3.70;;;;;;;3.52;70.17;96698.47;5056877;28;20328;-84